首页
METAR-TAF:

METAR-TAF

机场 :

埃夫勒, 法国

纬度: 49-01N, 经度: 001-13E, 海拔: 141米

当前天气观测

该预报发布于38分钟前的17:30 UTC
风速10节,风向东南
温度 37°C
湿度 22%
气压 1014 hPa
能见度10公里或以上
1500米以下无云,无积雨云

METAR: LFOE 231730Z AUTO 13010KT CAVOK 37/12 Q1014 TEMPO VRB40G60KT 1400 TSRAGS SCT015 BKN080CB

时间: 20:08 (18:08 UTC)

预报

该预报发布于4小时和8分钟前的14:00 UTC
预报有效从23日的 15点(UTC)到 24日的 15点(UTC)
风速10节,风向东南
能见度10公里或以上
1500米以下无云,无积雨云
成为
从 23日的 17点(UTC)到 23日的 19点(UTC)
风速20节,风向西,有时为35节阵风
短暂存在
从 23日的 19点(UTC)到 24日的 02点(UTC)
风速20节,风向西转西南,有时为45节阵风
能見度: 3000
多云层高于8000英尺, 积雨云.
阵雨
几率 30% :
短暂存在
从 23日的 19点(UTC)到 24日的 02点(UTC)
风速40节,风向多变,有时为60节阵风
能見度: 1400
散云层高于1500英尺
多云层高于8000英尺, 积雨云.
雷暴, 雨, 小冰雹或雪球
成为
从 24日的 03点(UTC)到 24日的 05点(UTC)
风速10节,风向西转西南,有时为20节阵风
几率 30% :
短暂存在
从 24日的 07点(UTC)到 24日的 09点(UTC)
能見度: 4000
阵雨

TAF: LFOE 231400Z 2315/2415 14010KT CAVOK BECMG 2317/2319 26020G35KT TEMPO 2319/2402 24020G45KT 3000 SHRA BKN080CB PROB30 TEMPO 2319/2402 VRB40G60KT 1400 TSRAGS SCT015 BKN080CB BECMG 2403/2405 25010G20KT PROB30 TEMPO 2407/2409 4000 SHRA

超过4000个机场的气象观测和天气预报(METAR&TAF报告)。

可查询的气象台以黄色和红色小点在地图上表示。

将鼠标移到小点上方,可查看气象台名称。

然后点击查看天气观测和预报。

如需切换地图:点击带黑十字的绿色按钮放大地图;点击带横线的绿色按钮缩小地图;或者点击绿色箭头查看邻近地区的地图。


METAR-TAF: